Valle de Ensueno, Puerto Rico
Current Conditions -  °F | °C
As of 10:56 AM on Saturday 20 Dec 2014 (Local Time) from TJSJ Reporting Station
Scattered Clouds Scattered Clouds  
Wind Chill: 28°   Ceiling: Unl
Heat Index: 31°   Visibility: 10mi
Dew Point: 22°   Wind: 14mph
Humidity: 67%   Direction: 60°ENE
Pressure: 30.06"   Gusts: NA
Location:  18.2551°N, 65.9776°W
Report Text: TJSJ 201456Z 06012KT 10SM SCT033 28/22 A3006 RMK AO2 SLP177 T02830217 50012
Loading
Personal Weather Stations






























Interactive Weather Map New forecast layout! Learn more

10-Day Weather Forecast

Advertisements
Track Severe Weather on mobile